Time;durP1;ratioP1;P1;durP2;ratioP2;P2;SDS_P1;SDS_P2;PMS_P1;PMS_P2;Temp;Humidity;BMP_temperature;BMP_pressure;BME280_temperature;BME280_humidity;BME280_pressure;Samples;Min_cycle;Max_cycle;Signal;HPM_P1;HPM_P2
2022/03/18 13:57:10;;;;;;;4.82;2.33;;;;;;;;;;7370557;19;132629;-12
2022/03/18 13:59:54;;;;;;;2.67;1.98;;;;;;;;;;7364605;19;153496;-16
2022/03/18 14:02:28;;;;;;;4.90;2.95;;;;;;;;;;7364554;19;161745;-17
2022/03/18 14:05:02;;;;;;;5.93;2.58;;;;;;;;;;7363841;19;162399;-16
2022/03/18 14:07:48;;;;;;;3.80;2.00;;;;;;;;;;7367185;19;154037;-15
2022/03/18 14:10:23;;;;;;;4.00;2.10;;;;;;;;;;7362516;19;153731;-14
2022/03/18 14:13:07;;;;;;;4.15;1.92;;;;;;;;;;7367566;19;161899;-13
2022/03/18 14:15:41;;;;;;;3.65;1.75;;;;;;;;;;7364155;19;162384;-14
2022/03/18 14:18:13;;;;;;;2.92;1.75;;;;;;;;;;7364289;19;154019;-13
2022/03/18 14:21:02;;;;;;;4.57;1.90;;;;;;;;;;7369014;19;153855;-14
2022/03/18 14:23:36;;;;;;;4.05;2.55;;;;;;;;;;7362712;19;162322;-15
2022/03/18 14:26:09;;;;;;;3.67;1.67;;;;;;;;;;7362352;19;162439;-15
2022/03/18 14:28:48;;;;;;;2.92;1.52;;;;;;;;;;7363975;19;154025;-15
2022/03/18 14:31:19;;;;;;;5.07;2.33;;;;;;;;;;7362468;19;153734;-13
2022/03/18 14:33:51;;;;;;;3.15;1.67;;;;;;;;;;7367457;19;161983;-14
2022/03/18 14:36:23;;;;;;;3.55;1.67;;;;;;;;;;7361997;19;163120;-14
2022/03/18 14:38:55;;;;;;;3.95;1.67;;;;;;;;;;7363726;19;153938;-15
2022/03/18 14:41:28;;;;;;;3.45;1.67;;;;;;;;;;7362417;19;153451;-14
2022/03/18 14:44:02;;;;;;;;;;;;;;;;;;7365063;19;161941;-15
2022/03/18 14:46:33;;;;;;;6.38;2.45;;;;;;;;;;7363238;19;162606;-15
2022/03/18 14:49:04;;;;;;;5.68;2.65;;;;;;;;;;7361645;19;154037;-14
2022/03/18 14:51:36;;;;;;;10.88;2.92;;;;;;;;;;7363072;19;153514;-13
2022/03/18 14:54:07;;;;;;;8.48;2.97;;;;;;;;;;7365849;19;161821;-14
2022/03/18 14:56:36;;;;;;;11.02;2.83;;;;;;;;;;7352889;19;162626;-14
2022/03/18 14:59:10;;;;;;;7.45;2.88;;;;;;;;;;7333918;19;153932;-14
2022/03/18 15:01:41;;;;;;;12.15;3.10;;;;;;;;;;7335994;19;153555;-15
2022/03/18 15:04:14;;;;;;;11.82;3.30;;;;;;;;;;7332509;19;161815;-15
2022/03/18 15:06:45;;;;;;;9.10;2.80;;;;;;;;;;7332192;19;162424;-18
2022/03/18 15:09:16;;;;;;;4.82;2.88;;;;;;;;;;7337601;19;154363;-16
2022/03/18 15:11:48;;;;;;;4.10;2.58;;;;;;;;;;7334506;19;153600;-14
2022/03/18 15:14:22;;;;;;;6.22;3.45;;;;;;;;;;7336146;19;161989;-15
2022/03/18 15:16:54;;;;;;;6.18;2.50;;;;;;;;;;7338225;19;162823;-14
2022/03/18 15:19:26;;;;;;;4.45;2.42;;;;;;;;;;7333724;19;154324;-14
2022/03/18 15:21:59;;;;;;;6.13;2.20;;;;;;;;;;7333795;19;153620;-14
2022/03/18 15:24:34;;;;;;;5.05;2.20;;;;;;;;;;7333297;19;161915;-15
2022/03/18 15:27:07;;;;;;;7.75;2.53;;;;;;;;;;7332408;19;162547;-14
2022/03/18 15:29:41;;;;;;;5.50;2.35;;;;;;;;;;7333371;19;153937;-15
2022/03/18 15:32:12;;;;;;;6.40;2.40;;;;;;;;;;7332303;19;153690;-14
2022/03/18 15:34:45;;;;;;;7.68;2.70;;;;;;;;;;7335646;19;161845;-15
2022/03/18 15:37:16;;;;;;;7.30;2.45;;;;;;;;;;7332915;19;162503;-14
2022/03/18 15:39:48;;;;;;;8.20;2.58;;;;;;;;;;7333146;19;153897;-15
2022/03/18 15:42:20;;;;;;;6.35;2.47;;;;;;;;;;7334635;19;153674;-15
2022/03/18 15:44:54;;;;;;;5.65;2.47;;;;;;;;;;7332813;19;161777;-15
2022/03/18 15:47:26;;;;;;;5.07;2.20;;;;;;;;;;7327818;19;162505;-13
2022/03/18 15:49:57;;;;;;;4.68;2.38;;;;;;;;;;7331528;19;153855;-14
2022/03/18 15:52:31;;;;;;;5.78;2.20;;;;;;;;;;7329815;19;153649;-16
2022/03/18 15:55:02;;;;;;;3.90;2.00;;;;;;;;;;7331259;19;161853;-14
2022/03/18 15:57:34;;;;;;;3.45;2.10;;;;;;;;;;7334498;19;162531;-17
2022/03/18 16:00:11;;;;;;;5.28;2.20;;;;;;;;;;7332643;19;153981;-14
2022/03/18 16:02:43;;;;;;;6.30;2.08;;;;;;;;;;7332504;19;153540;-14
2022/03/18 16:05:15;;;;;;;7.22;2.00;;;;;;;;;;7330996;19;161811;-13
2022/03/18 16:07:47;;;;;;;2.40;1.50;;;;;;;;;;7332085;19;162453;-15
2022/03/18 16:10:18;;;;;;;3.50;1.92;;;;;;;;;;7327317;19;153929;-15
2022/03/18 16:12:49;;;;;;;3.85;1.98;;;;;;;;;;7335118;19;153512;-16
2022/03/18 16:15:27;;;;;;;8.10;2.50;;;;;;;;;;7333619;19;161782;-14
2022/03/18 16:17:59;;;;;;;3.85;1.77;;;;;;;;;;7335009;19;162897;-14
2022/03/18 16:20:30;;;;;;;4.57;1.90;;;;;;;;;;7335177;19;154076;-16
2022/03/18 16:23:01;;;;;;;3.33;1.67;;;;;;;;;;7335427;19;153533;-14
2022/03/18 16:25:34;;;;;;;5.35;2.13;;;;;;;;;;7334051;19;161781;-14
2022/03/18 16:28:08;;;;;;;3.72;2.20;;;;;;;;;;7331849;19;162431;-15
2022/03/18 16:30:43;;;;;;;2.53;1.70;;;;;;;;;;7335002;19;154000;-15
2022/03/18 16:33:14;;;;;;;4.18;2.08;;;;;;;;;;7334438;19;153610;-16
2022/03/18 16:35:46;;;;;;;2.20;1.80;;;;;;;;;;7334400;19;161988;-14
2022/03/18 16:38:17;;;;;;;3.67;1.90;;;;;;;;;;7333537;19;162507;-16
2022/03/18 16:40:49;;;;;;;3.40;1.88;;;;;;;;;;7334724;19;154080;-15
2022/03/18 16:43:20;;;;;;;3.03;1.83;;;;;;;;;;7329383;19;153484;-15
2022/03/18 16:51:22;;;;;;;3.25;1.77;;;;;;;;;;7332568;19;154012;-17
2022/03/18 16:53:54;;;;;;;3.15;1.90;;;;;;;;;;7331985;19;153486;-16
2022/03/18 16:56:25;;;;;;;4.13;1.70;;;;;;;;;;7329833;19;161912;-17
2022/03/18 16:58:56;;;;;;;3.17;1.90;;;;;;;;;;7333539;19;162561;-16
2022/03/18 17:04:27;;;;;;;3.03;1.60;;;;;;;;;;7331326;19;153696;-15
2022/03/18 17:06:58;;;;;;;;;;;;;;;;;;7330922;19;162014;-15
2022/03/18 17:09:30;;;;;;;2.30;1.70;;;;;;;;;;7333800;19;162413;-16
2022/03/18 17:12:01;;;;;;;4.30;1.60;;;;;;;;;;7333878;19;153916;-16
2022/03/18 17:14:34;;;;;;;2.72;1.45;;;;;;;;;;7331955;19;153485;-16
2022/03/18 17:17:08;;;;;;;3.40;1.77;;;;;;;;;;7332277;19;161893;-16
2022/03/18 17:19:40;;;;;;;3.90;1.63;;;;;;;;;;7330434;19;162401;-13
2022/03/18 17:22:14;;;;;;;3.00;1.95;;;;;;;;;;7328292;19;153964;-13
2022/03/18 17:24:45;;;;;;;5.10;1.67;;;;;;;;;;7333172;19;153543;-15
2022/03/18 17:27:16;;;;;;;2.90;1.70;;;;;;;;;;7331884;19;162508;-13
2022/03/18 17:29:48;;;;;;;3.25;1.83;;;;;;;;;;7326252;19;162712;-13
2022/03/18 17:32:22;;;;;;;59.35;29.80;;;;;;;;;;7331571;19;153993;-13
2022/03/18 17:34:54;;;;;;;71.80;38.13;;;;;;;;;;7329901;19;153496;-14
2022/03/18 17:37:25;;;;;;;78.28;38.55;;;;;;;;;;7329703;19;162023;-13
2022/03/18 17:39:57;;;;;;;67.53;35.60;;;;;;;;;;7329551;19;162431;-15
2022/03/18 17:42:29;;;;;;;60.30;32.58;;;;;;;;;;7329791;19;154320;-14
2022/03/18 17:45:00;;;;;;;57.70;26.52;;;;;;;;;;7329742;19;153636;-13
2022/03/18 17:47:35;;;;;;;57.97;28.15;;;;;;;;;;7328813;19;161795;-14
2022/03/18 17:50:07;;;;;;;47.13;25.10;;;;;;;;;;7329177;19;162533;-13
2022/03/18 17:52:39;;;;;;;55.00;26.70;;;;;;;;;;7329689;19;153688;-14
2022/03/18 17:55:12;;;;;;;49.88;24.27;;;;;;;;;;7328660;19;153812;-14
2022/03/18 17:57:44;;;;;;;50.47;24.75;;;;;;;;;;7328947;19;161937;-13
2022/03/18 18:00:16;;;;;;;51.13;24.13;;;;;;;;;;7328861;19;162551;-14
2022/03/18 18:02:50;;;;;;;43.10;23.50;;;;;;;;;;7329181;19;153935;-13
2022/03/18 18:05:22;;;;;;;42.85;22.80;;;;;;;;;;7328565;19;153691;-15
2022/03/18 18:07:54;;;;;;;49.67;23.50;;;;;;;;;;7327291;19;161808;-13
2022/03/18 18:10:25;;;;;;;43.47;22.05;;;;;;;;;;7328461;19;162337;-14
2022/03/18 18:12:57;;;;;;;42.83;22.75;;;;;;;;;;7328920;19;153885;-14
2022/03/18 18:15:29;;;;;;;44.05;21.67;;;;;;;;;;7328588;19;154526;-16
2022/03/18 18:18:03;;;;;;;39.13;21.05;;;;;;;;;;7328123;19;162045;-18
2022/03/18 18:23:18;;;;;;;36.47;20.42;;;;;;;;;;7328684;19;153747;-14
2022/03/18 18:25:50;;;;;;;40.05;19.40;;;;;;;;;;7328303;19;153303;-15
2022/03/18 18:28:22;;;;;;;38.85;20.65;;;;;;;;;;7326234;19;161962;-15
2022/03/18 18:30:56;;;;;;;35.20;18.45;;;;;;;;;;7328942;19;162543;-13
2022/03/18 18:33:32;;;;;;;39.45;19.45;;;;;;;;;;7338362;19;153997;-13
2022/03/18 18:36:03;;;;;;;36.25;20.05;;;;;;;;;;7336064;19;153706;-16
2022/03/18 18:38:34;;;;;;;37.58;19.20;;;;;;;;;;7334094;19;161982;-13
2022/03/18 18:41:06;;;;;;;39.00;18.00;;;;;;;;;;7333940;19;162684;-15
2022/03/18 18:43:38;;;;;;;32.20;17.80;;;;;;;;;;7337294;19;154160;-13
2022/03/18 18:46:10;;;;;;;35.20;17.15;;;;;;;;;;7336175;19;153596;-14
2022/03/18 18:48:44;;;;;;;34.90;18.23;;;;;;;;;;7332873;19;161820;-14
2022/03/18 18:51:16;;;;;;;39.15;18.52;;;;;;;;;;7333892;19;162347;-15
2022/03/18 18:53:47;;;;;;;34.90;18.45;;;;;;;;;;7332794;19;153970;-13
2022/03/18 18:56:18;;;;;;;37.63;17.92;;;;;;;;;;7332217;19;153896;-14
2022/03/18 18:58:50;;;;;;;34.20;17.98;;;;;;;;;;7335462;19;161843;-14
2022/03/18 19:01:21;;;;;;;35.80;17.13;;;;;;;;;;7333100;19;162502;-14
2022/03/18 19:03:55;;;;;;;30.70;16.15;;;;;;;;;;7337937;19;154282;-15
2022/03/18 19:06:28;;;;;;;32.08;17.15;;;;;;;;;;7333889;19;153553;-13
2022/03/18 19:09:00;;;;;;;36.30;17.85;;;;;;;;;;7332861;19;162157;-13
2022/03/18 19:11:31;;;;;;;34.83;17.05;;;;;;;;;;7333355;19;162980;-15
2022/03/18 19:14:03;;;;;;;34.67;16.48;;;;;;;;;;7337295;19;154133;-14
2022/03/18 19:16:35;;;;;;;32.60;16.58;;;;;;;;;;7332824;19;153669;-14
2022/03/18 19:19:09;;;;;;;28.58;15.88;;;;;;;;;;7332030;19;161954;-14
2022/03/18 19:21:41;;;;;;;35.95;16.52;;;;;;;;;;7333186;19;162403;-16
2022/03/18 19:24:12;;;;;;;33.20;16.83;;;;;;;;;;7333549;19;154163;-14
2022/03/18 19:26:44;;;;;;;31.23;16.17;;;;;;;;;;7333442;19;153758;-15
2022/03/18 19:29:16;;;;;;;32.55;17.33;;;;;;;;;;7335522;19;162124;-15
2022/03/18 19:34:33;;;;;;;26.65;14.57;;;;;;;;;;7335385;19;153984;-15
2022/03/18 19:37:05;;;;;;;27.48;15.38;;;;;;;;;;7333314;19;153598;-13
2022/03/18 19:39:37;;;;;;;24.52;13.45;;;;;;;;;;7331707;19;161887;-14
2022/03/18 19:42:08;;;;;;;24.58;13.70;;;;;;;;;;7331238;19;162655;-14
2022/03/18 19:44:40;;;;;;;26.65;13.63;;;;;;;;;;7332610;19;153934;-15
2022/03/18 19:47:13;;;;;;;25.13;13.25;;;;;;;;;;7332400;19;153696;-13
2022/03/18 19:49:47;;;;;;;30.17;14.05;;;;;;;;;;7330579;19;162029;-13
2022/03/18 19:52:21;;;;;;;28.70;13.75;;;;;;;;;;7332428;19;162498;-14
2022/03/18 19:54:53;;;;;;;25.70;14.20;;;;;;;;;;7336514;19;154586;-13
2022/03/18 20:02:55;;;;;;;98.47;60.58;;;;;;;;;;7334230;19;162443;-13
2022/03/18 20:05:29;;;;;;;93.90;51.70;;;;;;;;;;7332425;19;153916;-13
2022/03/18 20:08:04;;;;;;;79.05;49.38;;;;;;;;;;7331859;19;153626;-13
2022/03/18 20:10:37;;;;;;;75.70;43.03;;;;;;;;;;7329079;19;162071;-14
2022/03/18 20:13:09;;;;;;;73.63;40.25;;;;;;;;;;7333235;19;162509;-16
2022/03/18 20:15:41;;;;;;;66.28;38.92;;;;;;;;;;7332158;19;154016;-14
2022/03/18 20:18:13;;;;;;;73.97;42.75;;;;;;;;;;7331473;19;153666;-15
2022/03/18 20:20:47;;;;;;;69.80;40.13;;;;;;;;;;7331287;19;161898;-15
2022/03/18 20:23:18;;;;;;;65.35;40.38;;;;;;;;;;7331060;19;162717;-16
2022/03/18 20:25:49;;;;;;;69.05;38.88;;;;;;;;;;7331261;19;154275;-16
2022/03/18 20:28:21;;;;;;;62.20;38.10;;;;;;;;;;7333447;19;153607;-16
2022/03/18 20:30:52;;;;;;;65.18;38.28;;;;;;;;;;7328669;19;161916;-16
2022/03/18 20:33:24;;;;;;;63.85;35.67;;;;;;;;;;7329658;19;162354;-15
2022/03/18 20:35:59;;;;;;;62.53;36.95;;;;;;;;;;7330234;19;154024;-15
2022/03/18 20:38:30;;;;;;;65.57;37.80;;;;;;;;;;7330998;19;153642;-16
2022/03/18 20:41:02;;;;;;;64.13;36.88;;;;;;;;;;7330812;19;162058;-14
2022/03/18 20:43:33;;;;;;;60.28;37.50;;;;;;;;;;7333342;19;162357;-15
2022/03/18 20:46:05;;;;;;;59.78;36.70;;;;;;;;;;7330432;19;154020;-14
2022/03/18 20:48:38;;;;;;;61.80;36.95;;;;;;;;;;7330798;19;153646;-14
2022/03/18 20:51:12;;;;;;;55.80;36.30;;;;;;;;;;7331206;19;161801;-13
2022/03/18 20:53:43;;;;;;;59.22;34.10;;;;;;;;;;7330867;19;162662;-13
2022/03/18 20:56:14;;;;;;;54.10;35.38;;;;;;;;;;7327349;19;153882;-13
2022/03/18 20:58:46;;;;;;;56.08;34.58;;;;;;;;;;7332179;19;153768;-13
2022/03/18 21:01:19;;;;;;;59.80;35.97;;;;;;;;;;7330140;19;161785;-15
2022/03/18 21:03:50;;;;;;;60.23;34.47;;;;;;;;;;7334545;19;162336;-14
2022/03/18 21:06:24;;;;;;;55.33;35.22;;;;;;;;;;7330424;19;154009;-13
2022/03/18 21:08:56;;;;;;;59.85;35.00;;;;;;;;;;7331220;19;153705;-14
2022/03/18 21:11:27;;;;;;;55.78;34.40;;;;;;;;;;7330897;19;162058;-14
2022/03/18 21:13:59;;;;;;;58.72;34.35;;;;;;;;;;7332982;19;162750;-13
2022/03/18 21:16:32;;;;;;;55.67;34.35;;;;;;;;;;7330497;19;153978;-13
2022/03/18 21:19:04;;;;;;;57.50;34.38;;;;;;;;;;7330023;19;153736;-14
2022/03/18 21:21:40;;;;;;;64.17;36.07;;;;;;;;;;7332324;19;161954;-13
2022/03/18 21:24:11;;;;;;;78.78;47.03;;;;;;;;;;7332255;19;163200;-13
2022/03/18 21:32:18;;;;;;;57.55;37.50;;;;;;;;;;7327684;19;162054;-15
2022/03/18 21:34:50;;;;;;;70.15;40.65;;;;;;;;;;7331382;19;162514;-13
2022/03/18 21:37:26;;;;;;;61.95;38.97;;;;;;;;;;7329748;19;153799;-13
2022/03/18 21:39:57;;;;;;;64.05;36.53;;;;;;;;;;7332184;19;153620;-15
2022/03/18 21:42:29;;;;;;;58.88;36.35;;;;;;;;;;7331837;19;162114;-15
2022/03/18 21:45:00;;;;;;;62.22;39.90;;;;;;;;;;7327701;19;162411;-12
2022/03/18 21:47:32;;;;;;;69.88;41.88;;;;;;;;;;7328079;19;154127;-14
2022/03/18 21:50:03;;;;;;;63.33;40.47;;;;;;;;;;7330502;19;153669;-13
2022/03/18 21:52:37;;;;;;;58.47;38.10;;;;;;;;;;7331066;19;161840;-13
2022/03/18 21:55:10;;;;;;;57.40;37.05;;;;;;;;;;7330169;19;162415;-14
2022/03/18 21:57:43;;;;;;;56.17;36.53;;;;;;;;;;7331752;19;153958;-14
2022/03/18 22:00:16;;;;;;;50.50;34.07;;;;;;;;;;7331730;19;153589;-13
2022/03/18 22:02:47;;;;;;;;;;;;;;;;;;7332342;19;161948;-12
2022/03/18 22:05:18;;;;;;;54.42;35.00;;;;;;;;;;7331743;19;162852;-12
2022/03/18 22:07:52;;;;;;;50.70;34.55;;;;;;;;;;7336213;19;153965;-15
2022/03/18 22:10:24;;;;;;;52.08;33.28;;;;;;;;;;7338702;19;153562;-13
2022/03/18 22:12:56;;;;;;;52.40;33.53;;;;;;;;;;7337793;19;162217;-14
2022/03/18 22:15:29;;;;;;;58.55;35.17;;;;;;;;;;7338478;19;162748;-14
2022/03/18 22:18:04;;;;;;;50.55;32.78;;;;;;;;;;7336752;19;153992;-14
2022/03/18 22:20:35;;;;;;;54.10;33.83;;;;;;;;;;7338112;19;153418;-13
2022/03/18 22:23:09;;;;;;;51.13;33.63;;;;;;;;;;7337711;19;162114;-14
2022/03/18 22:25:40;;;;;;;51.25;31.75;;;;;;;;;;7337649;19;162478;-13
2022/03/18 22:28:12;;;;;;;53.47;32.67;;;;;;;;;;7338124;19;153965;-12
2022/03/18 22:30:43;;;;;;;50.17;30.50;;;;;;;;;;7337139;19;153859;-13
2022/03/18 22:33:14;;;;;;;49.75;30.58;;;;;;;;;;7336330;19;161895;-14
2022/03/18 22:35:47;;;;;;;48.40;31.38;;;;;;;;;;7337040;19;162298;-15
2022/03/18 22:38:21;;;;;;;49.55;31.60;;;;;;;;;;7338053;19;153928;-14
2022/03/18 22:40:53;;;;;;;46.83;29.95;;;;;;;;;;7337726;19;153584;-16
2022/03/18 22:43:27;;;;;;;48.13;31.75;;;;;;;;;;7337170;19;161878;-15
2022/03/18 22:45:59;;;;;;;50.85;31.77;;;;;;;;;;7337188;19;162537;-15
2022/03/18 22:48:30;;;;;;;50.20;30.83;;;;;;;;;;7336204;19;154299;-15
2022/03/18 22:51:02;;;;;;;49.10;29.85;;;;;;;;;;7336187;19;153603;-14
2022/03/18 22:53:36;;;;;;;45.47;29.52;;;;;;;;;;7337148;19;161924;-16
2022/03/18 22:56:08;;;;;;;41.55;29.95;;;;;;;;;;7335394;19;162361;-17
2022/03/18 22:58:39;;;;;;;40.88;28.50;;;;;;;;;;7337202;19;154246;-16
2022/03/18 23:01:10;;;;;;;48.90;30.73;;;;;;;;;;7337186;19;153572;-15
2022/03/18 23:03:42;;;;;;;45.03;28.23;;;;;;;;;;7336180;19;161956;-15
2022/03/18 23:06:13;;;;;;;42.20;28.77;;;;;;;;;;7336668;19;162442;-15
2022/03/18 23:08:47;;;;;;;49.83;27.85;;;;;;;;;;7335610;19;153720;-17
2022/03/18 23:14:02;;;;;;;41.00;27.27;;;;;;;;;;7336404;19;161802;-16
2022/03/18 23:16:35;;;;;;;39.92;27.17;;;;;;;;;;7336616;19;162402;-15
2022/03/18 23:19:06;;;;;;;;;;;;;;;;;;7335241;19;153943;-16
2022/03/18 23:21:37;;;;;;;37.42;26.48;;;;;;;;;;7337517;19;153207;-14
2022/03/18 23:24:12;;;;;;;43.60;27.67;;;;;;;;;;7336439;19;161835;-15
2022/03/18 23:26:45;;;;;;;42.33;27.52;;;;;;;;;;7335867;19;162515;-15
2022/03/18 23:29:16;;;;;;;42.55;26.60;;;;;;;;;;7337019;19;154132;-16
2022/03/18 23:31:47;;;;;;;39.15;25.95;;;;;;;;;;7335587;19;153835;-15
2022/03/18 23:34:19;;;;;;;42.25;26.35;;;;;;;;;;7335352;19;162035;-15
2022/03/18 23:36:51;;;;;;;39.00;26.83;;;;;;;;;;7332993;19;162475;-14
2022/03/18 23:39:25;;;;;;;38.28;25.60;;;;;;;;;;7334762;19;154337;-14
2022/03/18 23:41:56;;;;;;;36.65;24.85;;;;;;;;;;7337211;19;153735;-17
2022/03/18 23:44:28;;;;;;;36.17;24.98;;;;;;;;;;7336028;19;162092;-16
2022/03/18 23:46:59;;;;;;;41.00;27.13;;;;;;;;;;7332820;19;162438;-15
2022/03/18 23:49:30;;;;;;;35.25;23.40;;;;;;;;;;7332881;19;154216;-14
2022/03/18 23:52:02;;;;;;;34.95;25.02;;;;;;;;;;7331837;19;153331;-17
2022/03/18 23:54:36;;;;;;;41.45;25.25;;;;;;;;;;7332675;19;161941;-15
2022/03/18 23:57:07;;;;;;;35.72;23.35;;;;;;;;;;7332456;19;162618;-15
2022/03/18 23:59:39;;;;;;;36.95;24.90;;;;;;;;;;7332845;19;154088;-15
